KMFE/MFE METAR and TAF weather

Enter ICAO airport designator
Station Type Date Time Source
KMFE METAR 2021/01/22 06:53 UTC NOAA

KMFE 220653Z AUTO 00000KT 1 1/4SM BR OVC003 17/16 A2991 RMK AO2 SLP128 T01670161


Station Type Date Time Source
KMFE Decoded METAR 2021/01/22 06:53 UTC NOAA

MCALLEN MILLER INTERNATIONAL AIRPORT , TX, United States (KMFE) 26-11N 98-15W 38M
Jan 22, 2021 - 01:53 AM EST / 2021.01.22 0653 UTC
Wind: Calm:0
Visibility: 1 1/4 mile(s):0
Sky conditions: overcast
Weather: mist
Temperature: 62.1 F (16.7 C)
Dew Point: 61.0 F (16.1 C)
Relative Humidity: 96%
Pressure (altimeter): 29.91 in. Hg (1012 hPa)
ob: KMFE 220653Z AUTO 00000KT 1 1/4SM BR OVC003 17/16 A2991 RMK AO2 SLP128 T01670161
cycle: 7

Station Type Date Time Source
KMFE TAF 2021/01/22 07:48 UTC NOAA

TAF
AMD KMFE 220645Z 2207/2306 VRB03KT 1SM BR OVC003
TEMPO 2207/2211 1/2SM FG
FM221500 32005KT P6SM OVC005
FM230000 VRB03KT 3SM BR OVC010

Example: see airport list